createdAt,value
2022-10-08T00:01:28.993Z,13.70
2022-10-08T00:03:56.886Z,13.70
2022-10-08T00:06:28.667Z,13.70
2022-10-08T00:09:04.885Z,13.70
2022-10-08T00:11:33.809Z,13.60
2022-10-08T00:14:02.069Z,13.60
2022-10-08T00:16:33.402Z,13.50
2022-10-08T00:19:05.464Z,13.60
2022-10-08T00:21:37.529Z,13.60
2022-10-08T00:24:06.828Z,13.60
2022-10-08T00:26:39.968Z,13.70
2022-10-08T00:29:13.655Z,13.70
2022-10-08T00:31:42.054Z,13.70
2022-10-08T00:34:11.309Z,13.80
2022-10-08T00:36:40.646Z,13.80
2022-10-08T00:39:15.855Z,13.70
2022-10-08T00:41:44.801Z,13.80
2022-10-08T00:44:55.333Z,13.90
2022-10-08T00:47:32.111Z,14.00
2022-10-08T00:50:25.613Z,14.00
2022-10-08T00:52:56.746Z,13.90
2022-10-08T00:55:28.033Z,13.80
2022-10-08T00:58:01.115Z,13.80
2022-10-08T01:00:29.208Z,13.60
2022-10-08T01:02:56.036Z,13.60
2022-10-08T01:05:47.246Z,13.70
2022-10-08T01:08:38.792Z,13.60
2022-10-08T01:11:39.692Z,13.60
2022-10-08T01:14:20.854Z,13.40
2022-10-08T01:17:11.120Z,13.20
2022-10-08T01:19:56.232Z,13.20
2022-10-08T01:22:38.781Z,13.10
2022-10-08T01:25:35.511Z,13.10
2022-10-08T01:28:24.216Z,13.00
2022-10-08T01:31:15.775Z,12.90
2022-10-08T01:34:05.649Z,12.90
2022-10-08T01:36:35.495Z,12.90
2022-10-08T01:39:06.529Z,12.90
2022-10-08T01:41:33.888Z,12.90
2022-10-08T01:44:13.721Z,13.10
2022-10-08T01:46:43.956Z,13.00
2022-10-08T01:49:17.391Z,13.00
2022-10-08T01:52:00.050Z,13.10
2022-10-08T01:54:30.153Z,13.10
2022-10-08T01:57:01.185Z,13.00
2022-10-08T01:59:40.361Z,13.10
2022-10-08T02:02:27.888Z,13.10
2022-10-08T02:04:57.070Z,13.00
2022-10-08T02:07:33.051Z,13.10
2022-10-08T02:10:13.152Z,13.20
2022-10-08T02:12:48.316Z,13.20
2022-10-08T02:15:40.639Z,13.20
2022-10-08T02:18:18.229Z,13.10
2022-10-08T02:20:53.329Z,13.20
2022-10-08T02:23:40.873Z,13.10
2022-10-08T02:26:25.841Z,13.10
2022-10-08T02:29:02.598Z,13.10
2022-10-08T02:31:49.384Z,13.10
2022-10-08T02:34:39.869Z,13.10
2022-10-08T02:37:27.193Z,13.10
2022-10-08T02:40:08.481Z,13.20
2022-10-08T02:42:40.012Z,13.20
2022-10-08T02:45:27.052Z,13.10
2022-10-08T02:48:04.290Z,13.10
2022-10-08T02:50:33.107Z,13.00
2022-10-08T02:53:01.249Z,13.10
2022-10-08T02:55:29.154Z,13.00
2022-10-08T02:58:04.879Z,13.00
2022-10-08T03:00:37.373Z,12.90
2022-10-08T03:03:15.859Z,12.90
2022-10-08T03:05:44.438Z,12.90
2022-10-08T03:08:14.919Z,12.90
2022-10-08T03:10:45.505Z,12.90
2022-10-08T03:13:13.764Z,13.00
2022-10-08T03:15:42.809Z,13.00
2022-10-08T03:18:12.179Z,13.10
2022-10-08T03:20:44.844Z,13.10
2022-10-08T03:23:13.482Z,13.20
2022-10-08T03:25:40.509Z,13.30
2022-10-08T03:28:09.475Z,13.50
2022-10-08T03:30:36.332Z,13.60
2022-10-08T03:33:05.321Z,13.50
2022-10-08T03:35:32.431Z,13.50
2022-10-08T03:38:00.281Z,13.60
2022-10-08T03:40:29.333Z,13.70
2022-10-08T03:43:01.947Z,13.70
2022-10-08T03:45:34.710Z,13.80
2022-10-08T03:48:01.575Z,13.80
2022-10-08T03:50:31.494Z,13.50
2022-10-08T03:52:58.121Z,13.50
2022-10-08T03:55:25.980Z,13.50
2022-10-08T03:57:53.136Z,13.40
2022-10-08T04:00:19.876Z,13.50
2022-10-08T04:02:52.476Z,13.50
2022-10-08T04:05:22.310Z,13.40
2022-10-08T04:07:51.077Z,13.20
2022-10-08T04:10:24.788Z,13.00
2022-10-08T04:12:56.598Z,12.90
2022-10-08T04:15:23.622Z,12.80
2022-10-08T04:17:50.293Z,12.90
2022-10-08T04:20:20.182Z,12.90
2022-10-08T04:22:49.014Z,12.90
2022-10-08T04:25:16.406Z,12.90
2022-10-08T04:27:43.460Z,12.90
2022-10-08T04:30:11.688Z,13.00
2022-10-08T04:32:41.601Z,13.10
2022-10-08T04:35:09.151Z,13.10
2022-10-08T04:37:36.087Z,13.10
2022-10-08T04:40:04.129Z,13.00
2022-10-08T04:42:33.959Z,12.90
2022-10-08T04:45:02.595Z,12.90
2022-10-08T04:47:29.568Z,12.90
2022-10-08T04:50:03.399Z,12.80
2022-10-08T04:52:31.609Z,12.70
2022-10-08T04:54:59.408Z,12.60
2022-10-08T04:57:28.427Z,12.50
2022-10-08T05:00:17.642Z,12.50
2022-10-08T05:02:55.833Z,12.60
2022-10-08T05:06:01.316Z,12.60
2022-10-08T05:08:29.172Z,12.70
2022-10-08T05:11:02.850Z,12.80
2022-10-08T05:13:33.056Z,12.70
2022-10-08T05:16:09.190Z,12.80
2022-10-08T05:18:42.645Z,12.70
2022-10-08T05:21:11.999Z,12.80
2022-10-08T05:23:40.278Z,12.90
2022-10-08T05:26:41.461Z,12.80
2022-10-08T05:29:29.697Z,12.80
2022-10-08T05:32:09.009Z,12.80
2022-10-08T05:35:13.200Z,12.70
2022-10-08T05:37:40.629Z,12.60
2022-10-08T05:40:08.643Z,12.50
2022-10-08T05:43:23.895Z,12.50
2022-10-08T05:45:52.134Z,12.40
2022-10-08T05:48:20.801Z,12.30
2022-10-08T05:50:48.677Z,12.30
2022-10-08T05:53:17.360Z,12.10
2022-10-08T05:55:47.285Z,12.00
2022-10-08T05:58:17.993Z,12.00
2022-10-08T06:03:34.159Z,11.90
2022-10-08T06:06:08.918Z,12.00
2022-10-08T06:08:43.193Z,11.90
2022-10-08T06:11:10.957Z,11.90
2022-10-08T06:13:39.697Z,11.90
2022-10-08T06:16:10.987Z,12.00
2022-10-08T06:18:45.604Z,11.90
2022-10-08T06:21:23.691Z,11.90
2022-10-08T06:24:03.037Z,11.90
2022-10-08T06:26:36.276Z,12.00
2022-10-08T06:29:11.065Z,12.10
2022-10-08T06:31:54.457Z,12.20
2022-10-08T06:34:21.599Z,12.40
2022-10-08T06:36:56.298Z,12.50
2022-10-08T06:39:47.557Z,12.60
2022-10-08T06:42:16.254Z,12.80
2022-10-08T06:44:45.277Z,12.90
2022-10-08T06:47:15.215Z,12.80
2022-10-08T06:49:47.761Z,12.70
2022-10-08T06:52:15.469Z,12.60
2022-10-08T06:54:45.350Z,12.80
2022-10-08T06:57:13.244Z,12.90
2022-10-08T06:59:40.312Z,12.90
2022-10-08T07:02:06.950Z,13.10
2022-10-08T07:04:33.918Z,13.10
2022-10-08T07:07:00.593Z,13.20
2022-10-08T07:09:29.478Z,13.30
2022-10-08T07:11:56.321Z,13.20
2022-10-08T07:14:23.241Z,13.20
2022-10-08T07:16:51.379Z,13.20
2022-10-08T07:19:18.298Z,13.30
2022-10-08T07:21:48.240Z,13.30
2022-10-08T07:24:18.133Z,13.30
2022-10-08T07:26:50.809Z,13.40
2022-10-08T07:29:19.028Z,13.50
2022-10-08T07:31:47.115Z,13.70
2022-10-08T07:34:19.783Z,13.90
2022-10-08T07:36:47.679Z,14.20
2022-10-08T07:39:21.874Z,14.40
2022-10-08T07:42:08.476Z,14.50
2022-10-08T07:44:35.624Z,14.50
2022-10-08T07:47:03.364Z,14.60
2022-10-08T07:49:32.010Z,14.60
2022-10-08T07:51:58.685Z,14.70
2022-10-08T07:54:27.340Z,14.50
2022-10-08T07:57:02.041Z,14.50
2022-10-08T07:59:30.970Z,14.50
2022-10-08T08:01:57.697Z,14.70
2022-10-08T08:04:40.112Z,14.60
2022-10-08T08:07:08.769Z,14.70
2022-10-08T08:09:41.181Z,14.70
2022-10-08T08:12:09.175Z,14.90
2022-10-08T08:14:59.914Z,14.90
2022-10-08T08:17:27.350Z,14.90
2022-10-08T08:19:55.176Z,15.00
2022-10-08T08:22:27.802Z,15.10
2022-10-08T08:24:54.597Z,15.20
2022-10-08T08:27:28.642Z,15.30
2022-10-08T08:30:08.453Z,15.40
2022-10-08T08:32:42.533Z,16.30
2022-10-08T08:35:11.553Z,17.90
2022-10-08T08:37:47.229Z,20.20
2022-10-08T08:40:15.048Z,23.30
2022-10-08T08:42:54.782Z,25.20
2022-10-08T08:45:45.950Z,26.50
2022-10-08T08:48:24.652Z,28.20
2022-10-08T08:50:54.830Z,30.10
2022-10-08T08:53:22.624Z,30.90
2022-10-08T08:55:54.070Z,30.00
2022-10-08T08:58:46.469Z,30.10
2022-10-08T09:01:19.432Z,29.50
2022-10-08T09:03:56.635Z,29.80
2022-10-08T09:06:27.745Z,29.70
2022-10-08T09:09:31.005Z,29.70
2022-10-08T09:11:58.880Z,29.00
2022-10-08T09:14:45.941Z,29.70
2022-10-08T09:17:18.951Z,30.40
2022-10-08T09:19:52.359Z,29.00
2022-10-08T09:22:31.628Z,28.50
2022-10-08T09:25:06.433Z,29.50
2022-10-08T09:27:57.749Z,29.00
2022-10-08T09:30:37.276Z,30.10
2022-10-08T09:33:29.530Z,28.70
2022-10-08T09:36:06.857Z,26.70
2022-10-08T09:38:36.882Z,27.80
2022-10-08T09:41:19.927Z,26.80
2022-10-08T09:44:11.141Z,24.90
2022-10-08T09:46:38.993Z,23.40
2022-10-08T09:49:49.710Z,25.00
2022-10-08T09:52:22.257Z,27.50
2022-10-08T09:54:54.839Z,29.70
2022-10-08T09:57:22.833Z,30.30
2022-10-08T09:59:57.015Z,31.80
2022-10-08T10:02:30.945Z,33.50
2022-10-08T10:04:59.359Z,34.40
2022-10-08T10:07:38.038Z,35.00
2022-10-08T10:10:11.647Z,35.50
2022-10-08T10:12:42.191Z,36.80
2022-10-08T10:15:18.127Z,33.60
2022-10-08T10:17:57.359Z,31.30
2022-10-08T10:20:39.505Z,31.20
2022-10-08T10:23:26.349Z,29.90
2022-10-08T10:26:09.012Z,29.80
2022-10-08T10:28:56.392Z,30.50
2022-10-08T10:31:46.997Z,30.50
2022-10-08T10:34:15.621Z,31.30
2022-10-08T10:36:57.264Z,29.40
2022-10-08T10:39:38.129Z,27.50
2022-10-08T10:42:47.486Z,29.00
2022-10-08T10:45:25.523Z,27.20
2022-10-08T10:48:19.222Z,28.30
2022-10-08T10:51:04.978Z,30.10
2022-10-08T10:53:45.037Z,29.80
2022-10-08T10:56:14.591Z,31.80
2022-10-08T10:59:07.411Z,32.20
2022-10-08T11:01:46.332Z,31.40
2022-10-08T11:04:41.199Z,29.60
2022-10-08T11:07:26.968Z,27.20
2022-10-08T11:10:17.513Z,26.30
2022-10-08T11:13:17.914Z,26.30
2022-10-08T11:16:01.568Z,26.10
2022-10-08T11:18:57.995Z,24.20
2022-10-08T11:21:49.503Z,21.70
2022-10-08T11:24:25.152Z,20.90
2022-10-08T11:27:07.497Z,20.50
2022-10-08T11:29:45.459Z,20.20
2022-10-08T11:32:16.414Z,20.40
2022-10-08T11:34:54.916Z,21.50
2022-10-08T11:37:50.208Z,24.70
2022-10-08T11:40:23.301Z,28.20
2022-10-08T11:42:50.512Z,30.70
2022-10-08T11:45:23.460Z,30.60
2022-10-08T11:47:57.455Z,29.40
2022-10-08T11:50:37.351Z,28.00
2022-10-08T11:53:10.442Z,28.70
2022-10-08T11:55:38.794Z,29.90
2022-10-08T11:58:16.950Z,30.50
2022-10-08T12:00:46.683Z,31.20
2022-10-08T12:03:28.097Z,31.80
2022-10-08T12:05:59.637Z,29.50
2022-10-08T12:08:55.595Z,29.30
2022-10-08T12:11:37.629Z,29.70
2022-10-08T12:14:19.592Z,27.80
2022-10-08T12:20:16.984Z,26.80
2022-10-08T12:22:45.661Z,28.40
2022-10-08T12:25:33.155Z,28.70
2022-10-08T12:28:21.712Z,27.60
2022-10-08T12:30:53.392Z,26.80
2022-10-08T12:33:21.077Z,26.50
2022-10-08T12:36:00.251Z,26.10
2022-10-08T12:38:51.041Z,25.00
2022-10-08T12:42:06.315Z,25.80
2022-10-08T12:44:47.973Z,24.70
2022-10-08T12:47:30.051Z,23.00
2022-10-08T12:49:57.993Z,22.90
2022-10-08T12:52:35.366Z,21.90
2022-10-08T12:55:06.246Z,20.30
2022-10-08T12:57:40.396Z,19.30
2022-10-08T13:00:29.139Z,19.10
2022-10-08T13:03:12.308Z,19.30
2022-10-08T13:05:41.178Z,19.80
2022-10-08T13:08:27.636Z,21.60
2022-10-08T13:10:55.805Z,21.20
2022-10-08T13:13:51.372Z,21.20
2022-10-08T13:16:24.381Z,21.90
2022-10-08T13:18:54.798Z,23.50
2022-10-08T13:22:03.003Z,25.70
2022-10-08T13:24:36.976Z,26.60
2022-10-08T13:27:29.777Z,27.50
2022-10-08T13:29:57.890Z,28.30
2022-10-08T13:32:48.917Z,26.50
2022-10-08T13:35:27.985Z,23.10
2022-10-08T13:37:56.334Z,20.10
2022-10-08T13:40:25.777Z,18.80
2022-10-08T13:43:35.437Z,18.30
2022-10-08T13:46:02.351Z,18.00
2022-10-08T13:48:29.131Z,18.10
2022-10-08T13:50:57.520Z,18.20
2022-10-08T13:53:30.868Z,18.00
2022-10-08T13:56:00.860Z,17.60
2022-10-08T13:58:34.994Z,18.00
2022-10-08T14:01:02.055Z,18.10
2022-10-08T14:03:31.103Z,18.10
2022-10-08T14:06:00.174Z,18.00
2022-10-08T14:08:31.357Z,18.10
2022-10-08T14:11:00.495Z,18.20
2022-10-08T14:13:29.265Z,18.10
2022-10-08T14:15:56.316Z,18.10
2022-10-08T14:18:26.593Z,18.10
2022-10-08T14:20:54.338Z,18.00
2022-10-08T14:23:22.209Z,17.90
2022-10-08T14:25:56.217Z,17.70
2022-10-08T14:28:29.019Z,17.30
2022-10-08T14:30:58.277Z,17.10
2022-10-08T14:33:24.946Z,17.00
2022-10-08T14:35:52.942Z,17.00
2022-10-08T14:38:22.878Z,16.90
2022-10-08T14:40:52.874Z,17.00
2022-10-08T14:43:30.096Z,17.00
2022-10-08T14:46:10.335Z,16.80
2022-10-08T14:48:40.301Z,17.00
2022-10-08T14:51:07.227Z,17.10
2022-10-08T14:53:38.949Z,17.00
2022-10-08T14:56:12.440Z,16.90
2022-10-08T14:58:40.682Z,16.90
2022-10-08T15:01:07.439Z,16.80
2022-10-08T15:03:34.522Z,16.60
2022-10-08T15:06:01.569Z,16.50
2022-10-08T15:08:28.801Z,16.40
2022-10-08T15:10:55.539Z,16.40
2022-10-08T15:13:22.309Z,16.30
2022-10-08T15:15:49.209Z,16.20
2022-10-08T15:18:16.246Z,16.10
2022-10-08T15:20:43.298Z,16.00
2022-10-08T15:23:10.527Z,16.00
2022-10-08T15:25:37.388Z,16.00
2022-10-08T15:28:05.342Z,16.00
2022-10-08T15:30:32.086Z,16.10
2022-10-08T15:33:03.848Z,16.20
2022-10-08T15:35:34.772Z,16.40
2022-10-08T15:38:01.813Z,16.60
2022-10-08T15:40:31.997Z,16.60
2022-10-08T15:42:59.001Z,16.80
2022-10-08T15:45:26.126Z,16.80
2022-10-08T15:47:53.131Z,16.60
2022-10-08T15:50:20.166Z,16.40
2022-10-08T15:52:47.416Z,16.20
2022-10-08T15:55:16.031Z,16.20
2022-10-08T15:57:42.944Z,16.20
2022-10-08T16:00:10.153Z,16.10
2022-10-08T16:02:37.046Z,16.00
2022-10-08T16:05:04.365Z,15.90
2022-10-08T16:07:31.113Z,15.90
2022-10-08T16:09:58.129Z,15.80
2022-10-08T16:12:24.905Z,15.80
2022-10-08T16:14:51.831Z,15.80
2022-10-08T16:17:18.936Z,15.60
2022-10-08T16:19:45.942Z,15.60
2022-10-08T16:22:13.810Z,15.60
2022-10-08T16:24:40.849Z,15.60
2022-10-08T16:27:07.985Z,15.60
2022-10-08T16:29:35.102Z,15.50
2022-10-08T16:32:02.118Z,15.40
2022-10-08T16:34:30.558Z,15.30
2022-10-08T16:36:59.519Z,15.20
2022-10-08T16:39:26.497Z,15.20
2022-10-08T16:41:53.494Z,15.10
2022-10-08T16:44:21.306Z,15.00
2022-10-08T16:46:52.285Z,14.90
2022-10-08T16:49:25.855Z,14.90
2022-10-08T16:52:08.061Z,14.90
2022-10-08T16:54:35.306Z,14.80
2022-10-08T16:57:02.380Z,14.80
2022-10-08T16:59:29.901Z,14.90
2022-10-08T17:01:59.120Z,14.90
2022-10-08T17:04:28.161Z,14.80
2022-10-08T17:06:55.444Z,14.70
2022-10-08T17:09:22.325Z,14.70
2022-10-08T17:11:49.228Z,14.80
2022-10-08T17:14:16.697Z,14.70
2022-10-08T17:16:45.624Z,14.60
2022-10-08T17:19:13.070Z,14.50
2022-10-08T17:21:40.196Z,14.60
2022-10-08T17:24:07.195Z,14.60
2022-10-08T17:26:34.099Z,14.50
2022-10-08T17:29:06.529Z,14.40
2022-10-08T17:31:34.305Z,14.20
2022-10-08T17:34:01.853Z,14.20
2022-10-08T17:36:31.824Z,14.20
2022-10-08T17:39:00.696Z,14.30
2022-10-08T17:41:33.674Z,14.20
2022-10-08T17:44:03.016Z,14.10
2022-10-08T17:46:33.514Z,14.10
2022-10-08T17:49:00.301Z,14.00
2022-10-08T17:51:29.792Z,13.90
2022-10-08T17:54:06.351Z,13.80
2022-10-08T17:56:34.621Z,13.70
2022-10-08T17:59:01.804Z,13.80
2022-10-08T18:01:31.204Z,13.80
2022-10-08T18:04:03.682Z,13.70
2022-10-08T18:06:32.677Z,13.70
2022-10-08T18:09:02.312Z,13.70
2022-10-08T18:11:31.290Z,13.60
2022-10-08T18:13:58.364Z,13.60
2022-10-08T18:16:25.433Z,13.50
2022-10-08T18:18:53.231Z,13.50
2022-10-08T18:21:20.908Z,13.40
2022-10-08T18:23:48.614Z,13.30
2022-10-08T18:26:25.910Z,13.20
2022-10-08T18:28:58.421Z,13.10
2022-10-08T18:31:31.329Z,13.00
2022-10-08T18:34:09.429Z,13.00
2022-10-08T18:36:38.149Z,13.00
2022-10-08T18:39:07.652Z,13.00
2022-10-08T18:41:38.634Z,12.90
2022-10-08T18:44:06.370Z,13.00
2022-10-08T18:46:37.204Z,13.00
2022-10-08T18:49:05.354Z,12.90
2022-10-08T18:51:33.951Z,12.60
2022-10-08T18:54:03.757Z,12.40
2022-10-08T18:56:35.487Z,12.40
2022-10-08T18:59:04.932Z,12.40
2022-10-08T19:01:34.741Z,12.20
2022-10-08T19:04:04.087Z,12.10
2022-10-08T19:06:35.878Z,12.10
2022-10-08T19:09:04.876Z,12.10
2022-10-08T19:11:44.714Z,12.10
2022-10-08T19:14:14.282Z,12.20
2022-10-08T19:16:41.588Z,12.20
2022-10-08T19:19:17.251Z,12.00
2022-10-08T19:21:44.921Z,11.90
2022-10-08T19:24:20.304Z,12.00
2022-10-08T19:26:48.990Z,12.00
2022-10-08T19:29:18.469Z,11.90
2022-10-08T19:31:50.126Z,11.70
2022-10-08T19:34:19.738Z,11.50
2022-10-08T19:36:48.062Z,11.50
2022-10-08T19:39:23.430Z,11.60
2022-10-08T19:41:50.421Z,11.70
2022-10-08T19:44:17.464Z,11.60
2022-10-08T19:46:44.663Z,11.50
2022-10-08T19:49:11.660Z,11.50
2022-10-08T19:51:39.077Z,11.50
2022-10-08T19:54:06.114Z,11.60
2022-10-08T19:56:33.051Z,11.40
2022-10-08T19:59:00.067Z,11.40
2022-10-08T20:01:33.929Z,11.50
2022-10-08T20:04:01.869Z,11.30
2022-10-08T20:06:31.491Z,11.10
2022-10-08T20:09:01.429Z,11.10
2022-10-08T20:11:30.233Z,10.90
2022-10-08T20:13:58.005Z,10.80
2022-10-08T20:16:31.601Z,10.90
2022-10-08T20:19:01.747Z,11.00
2022-10-08T20:21:29.836Z,11.00
2022-10-08T20:23:57.091Z,11.00
2022-10-08T20:26:26.731Z,11.00
2022-10-08T20:28:58.134Z,11.10
2022-10-08T20:31:28.233Z,11.10
2022-10-08T20:34:01.043Z,11.00
2022-10-08T20:36:30.160Z,11.10
2022-10-08T20:38:57.613Z,11.10
2022-10-08T20:41:30.407Z,11.00
2022-10-08T20:44:02.693Z,11.00
2022-10-08T20:46:32.360Z,11.00
2022-10-08T20:48:59.746Z,10.80
2022-10-08T20:51:28.044Z,10.80
2022-10-08T20:54:03.484Z,10.80
2022-10-08T20:56:35.809Z,10.80
2022-10-08T20:59:05.824Z,10.80
2022-10-08T21:01:36.045Z,10.80
2022-10-08T21:04:03.272Z,10.80
2022-10-08T21:06:35.003Z,10.80
2022-10-08T21:09:01.727Z,10.80
2022-10-08T21:11:30.234Z,10.80
2022-10-08T21:13:59.483Z,10.70
2022-10-08T21:16:29.315Z,10.70
2022-10-08T21:19:02.049Z,10.50
2022-10-08T21:21:29.962Z,10.40
2022-10-08T21:23:57.681Z,10.40
2022-10-08T21:26:25.852Z,10.40
2022-10-08T21:28:56.705Z,10.40
2022-10-08T21:31:24.754Z,10.40
2022-10-08T21:33:53.725Z,10.50
2022-10-08T21:36:23.823Z,10.50
2022-10-08T21:38:50.921Z,10.20
2022-10-08T21:41:20.197Z,10.20
2022-10-08T21:43:56.706Z,10.00
2022-10-08T21:46:27.065Z,9.90
2022-10-08T21:48:55.217Z,10.20
2022-10-08T21:51:22.789Z,10.20
2022-10-08T21:53:51.972Z,10.10
2022-10-08T21:56:24.917Z,10.10
2022-10-08T21:58:58.079Z,10.00
2022-10-08T22:01:53.156Z,9.90
2022-10-08T22:04:22.795Z,9.90
2022-10-08T22:06:54.612Z,9.70
2022-10-08T22:09:27.803Z,9.80
2022-10-08T22:11:56.460Z,9.60
2022-10-08T22:14:23.717Z,9.50
2022-10-08T22:16:51.145Z,9.60
2022-10-08T22:19:18.348Z,9.50
2022-10-08T22:21:45.688Z,9.70
2022-10-08T22:24:13.051Z,9.50
2022-10-08T22:26:42.974Z,9.40
2022-10-08T22:29:10.147Z,9.50
2022-10-08T22:31:37.471Z,9.20
2022-10-08T22:34:04.260Z,9.20
2022-10-08T22:36:36.541Z,9.20
2022-10-08T22:39:03.659Z,9.10
2022-10-08T22:41:32.711Z,9.10
2022-10-08T22:44:00.883Z,9.30
2022-10-08T22:46:30.777Z,9.30
2022-10-08T22:49:01.732Z,9.30
2022-10-08T22:51:29.501Z,9.20
2022-10-08T22:53:57.648Z,9.00
2022-10-08T22:56:29.149Z,8.90
2022-10-08T22:58:57.416Z,9.00
2022-10-08T23:01:25.599Z,9.10
2022-10-08T23:03:53.196Z,9.20
2022-10-08T23:06:23.632Z,9.10
2022-10-08T23:08:58.923Z,9.10
2022-10-08T23:11:26.510Z,9.30
2022-10-08T23:13:56.137Z,9.30
2022-10-08T23:16:23.938Z,9.10
2022-10-08T23:18:57.024Z,8.90
2022-10-08T23:21:24.383Z,9.00
2022-10-08T23:23:53.609Z,9.10
2022-10-08T23:26:21.732Z,9.20
2022-10-08T23:28:54.468Z,9.30
2022-10-08T23:31:23.950Z,9.10
2022-10-08T23:33:52.722Z,8.90
2022-10-08T23:36:22.129Z,8.80
2022-10-08T23:38:49.698Z,8.70
2022-10-08T23:41:17.181Z,8.90
2022-10-08T23:43:46.759Z,9.00
2022-10-08T23:46:16.431Z,9.20
2022-10-08T23:48:43.413Z,9.00
2022-10-08T23:51:11.945Z,8.80
2022-10-08T23:53:39.474Z,8.60
2022-10-08T23:56:07.647Z,8.90
2022-10-08T23:58:35.070Z,8.90
